Time;durP1;ratioP1;P1;durP2;ratioP2;P2;SDS_P1;SDS_P2;PMS_P1;PMS_P2;Temp;Humidity;BMP_temperature;BMP_pressure;BME280_temperature;BME280_humidity;BME280_pressure;Samples;Min_cycle;Max_cycle;Signal;HPM_P1;HPM_P2
2023/07/25 00:01:59;;;;;;;14.48;6.62;;;;;;;26.22;48.25;98189.06;4482211;32;34549;-89
2023/07/25 00:04:27;;;;;;;13.93;6.47;;;;;;;26.16;48.51;98156.63;4468218;32;34810;-90
2023/07/25 00:06:54;;;;;;;15.90;6.43;;;;;;;26.21;48.57;98111.13;4482214;31;34750;-89
2023/07/25 00:09:22;;;;;;;12.48;6.40;;;;;;;26.27;50.49;98123.16;4482289;32;33196;-89
2023/07/25 00:11:49;;;;;;;13.40;6.25;;;;;;;26.63;47.01;98112.72;4480865;32;33903;-89
2023/07/25 00:14:17;;;;;;;12.88;6.35;;;;;;;26.36;49.24;98109.25;4482266;32;34884;-89
2023/07/25 00:16:44;;;;;;;13.23;6.10;;;;;;;26.33;49.49;98109.44;4480865;32;33659;-89
2023/07/25 00:19:12;;;;;;;17.80;6.35;;;;;;;26.41;48.16;98126.59;4482203;32;33362;-89
2023/07/25 00:21:39;;;;;;;14.25;6.25;;;;;;;26.14;49.30;98136.44;4482260;32;34903;-89
2023/07/25 00:24:07;;;;;;;12.18;6.12;;;;;;;26.23;48.80;98143.78;4482322;32;33842;-89
2023/07/25 00:26:35;;;;;;;14.70;6.30;;;;;;;26.48;48.54;98139.47;4480733;32;33913;-89
2023/07/25 00:29:02;;;;;;;15.13;6.55;;;;;;;26.50;48.69;98140.22;4482263;32;33575;-89
2023/07/25 00:31:30;;;;;;;11.75;5.80;;;;;;;26.48;48.72;98136.81;4484285;32;35028;-89
2023/07/25 00:33:59;;;;;;;15.32;5.93;;;;;;;26.45;47.49;98153.81;4483021;32;34270;-89
2023/07/25 00:36:26;;;;;;;10.23;5.80;;;;;;;26.40;48.39;98169.19;4482863;32;34709;-89
2023/07/25 00:38:54;;;;;;;13.80;5.70;;;;;;;26.42;48.32;98191.22;4484183;32;34093;-89
2023/07/25 00:41:22;;;;;;;18.02;6.15;;;;;;;26.49;48.34;98203.19;4483985;32;34256;-89
2023/07/25 00:43:49;;;;;;;12.85;7.05;;;;;;;26.73;48.33;98218.41;4482698;32;34119;-88
2023/07/25 00:46:17;;;;;;;10.55;5.00;;;;;;;26.71;48.67;98230.94;4482678;32;34510;-89
2023/07/25 00:48:45;;;;;;;13.62;5.78;;;;;;;26.78;48.95;98237.56;4484056;32;33107;-88
2023/07/25 00:51:12;;;;;;;12.60;6.07;;;;;;;26.52;48.27;98245.50;4482415;31;34634;-88
2023/07/25 00:53:40;;;;;;;17.00;6.65;;;;;;;26.38;49.92;98261.47;4482840;32;33494;-88
2023/07/25 00:56:09;;;;;;;13.35;6.20;;;;;;;26.18;49.24;98268.97;4482487;32;34192;-88
2023/07/25 00:58:36;;;;;;;15.07;6.93;;;;;;;26.00;50.03;98282.56;4482423;32;33263;-89
2023/07/25 01:01:06;;;;;;;15.73;6.90;;;;;;;25.66;52.18;98308.56;4482647;32;33962;-90
2023/07/25 01:03:35;;;;;;;13.68;5.65;;;;;;;25.48;53.13;98313.22;4483798;32;33941;-90
2023/07/25 01:06:04;;;;;;;15.15;5.93;;;;;;;25.23;55.02;98301.47;4482368;32;34455;-89
2023/07/25 01:08:32;;;;;;;17.62;6.30;;;;;;;24.96;57.81;98308.37;4482514;31;33128;-89
2023/07/25 01:10:59;;;;;;;15.18;5.90;;;;;;;24.95;58.57;98314.63;4481761;32;33514;-88
2023/07/25 01:13:27;;;;;;;12.40;5.75;;;;;;;24.81;58.44;98322.53;4483625;32;34046;-87
2023/07/25 01:15:55;;;;;;;13.55;5.65;;;;;;;24.64;60.09;98329.69;4484042;32;33763;-87
2023/07/25 01:18:24;;;;;;;13.13;5.57;;;;;;;24.41;60.88;98346.06;4482787;32;33313;-90
2023/07/25 01:20:51;;;;;;;11.45;5.03;;;;;;;24.12;62.48;98339.69;4482596;32;34304;-89
2023/07/25 01:23:19;;;;;;;13.43;5.50;;;;;;;24.03;62.67;98322.53;4482668;32;33912;-88
2023/07/25 01:25:47;;;;;;;13.43;5.25;;;;;;;24.12;62.80;98329.09;4482500;32;33390;-89
2023/07/25 01:28:14;;;;;;;13.48;5.68;;;;;;;23.79;63.82;98312.38;4482259;32;33122;-87
2023/07/25 01:30:42;;;;;;;9.90;4.68;;;;;;;24.03;63.42;98293.41;4483785;32;34541;-88
2023/07/25 01:33:10;;;;;;;11.95;4.97;;;;;;;24.00;63.90;98304.16;4482504;32;33735;-88
2023/07/25 01:35:37;;;;;;;13.43;4.55;;;;;;;23.99;63.68;98292.72;4482114;32;32621;-87
2023/07/25 01:38:04;;;;;;;12.18;4.53;;;;;;;24.10;63.19;98273.59;4469180;32;32606;-87
2023/07/25 01:40:32;;;;;;;10.57;4.22;;;;;;;23.89;63.11;98240.37;4483291;32;34084;-87
2023/07/25 01:43:00;;;;;;;9.43;4.00;;;;;;;23.82;64.20;98205.44;4483325;32;34154;-87
2023/07/25 01:45:27;;;;;;;11.93;4.30;;;;;;;24.12;64.12;98194.06;4483588;32;34520;-87
2023/07/25 01:47:56;;;;;;;11.15;4.65;;;;;;;24.31;63.91;98204.44;4482073;32;32639;-87
2023/07/25 01:50:25;;;;;;;11.77;4.53;;;;;;;24.15;62.43;98175.34;4483092;32;34377;-87
2023/07/25 01:52:53;;;;;;;11.52;4.18;;;;;;;24.18;63.90;98154.84;4483182;32;34174;-87
2023/07/25 01:55:21;;;;;;;10.98;4.60;;;;;;;24.33;64.36;98120.44;4483430;32;33582;-87
2023/07/25 01:57:48;;;;;;;11.77;4.03;;;;;;;24.55;63.88;98094.38;4483666;32;33160;-87
2023/07/25 02:00:16;;;;;;;13.38;4.15;;;;;;;24.61;63.52;98098.44;4469409;32;33619;-87
2023/07/25 02:02:43;;;;;;;10.48;4.30;;;;;;;23.69;65.96;98102.09;4483348;32;34602;-87
2023/07/25 02:05:11;;;;;;;12.55;4.45;;;;;;;23.28;66.97;98121.13;4483324;32;34326;-87
2023/07/25 02:07:39;;;;;;;15.20;4.28;;;;;;;23.87;65.02;98109.91;4483213;31;31801;-87
2023/07/25 02:10:07;;;;;;;9.05;4.05;;;;;;;24.13;64.44;98122.50;4483320;32;33797;-87
2023/07/25 02:12:34;;;;;;;9.52;4.00;;;;;;;24.25;64.36;98123.56;4469059;32;34888;-87
2023/07/25 02:15:02;;;;;;;14.52;4.97;;;;;;;24.37;64.22;98164.34;4482060;32;32499;-87
2023/07/25 02:17:31;;;;;;;11.35;4.37;;;;;;;24.24;64.33;98169.50;4482194;32;33821;-87
2023/07/25 02:19:58;;;;;;;10.38;4.62;;;;;;;24.46;63.66;98174.41;4483281;32;34708;-87
2023/07/25 02:22:26;;;;;;;10.35;4.00;;;;;;;24.45;63.52;98205.34;4481893;32;34973;-87
2023/07/25 02:24:55;;;;;;;11.18;4.45;;;;;;;24.34;63.73;98204.25;4483173;32;33518;-87
2023/07/25 02:27:23;;;;;;;9.38;4.70;;;;;;;24.28;64.03;98181.63;4483267;32;33140;-88
2023/07/25 02:29:51;;;;;;;11.77;4.45;;;;;;;24.00;65.48;98087.91;4481985;32;34620;-89
2023/07/25 02:32:18;;;;;;;11.30;5.00;;;;;;;23.47;66.52;98019.56;4481899;32;33415;-87
2023/07/25 02:34:46;;;;;;;10.48;4.95;;;;;;;23.50;67.47;98051.16;4483318;32;34531;-88
2023/07/25 02:37:14;;;;;;;13.93;5.15;;;;;;;23.66;66.68;98022.88;4483021;32;33574;-87
2023/07/25 02:39:43;;;;;;;12.35;4.78;;;;;;;23.81;66.21;97999.09;4483345;31;33269;-87
2023/07/25 02:42:11;;;;;;;9.10;4.72;;;;;;;23.99;65.62;97985.62;4483121;32;33806;-87
2023/07/25 02:44:38;;;;;;;11.40;4.57;;;;;;;23.93;65.44;97985.12;4482025;32;33987;-87
2023/07/25 02:47:06;;;;;;;11.05;4.47;;;;;;;24.06;64.87;97986.09;4482970;32;34167;-87
2023/07/25 02:49:35;;;;;;;9.70;5.12;;;;;;;24.04;65.23;98006.50;4483010;32;33531;-87
2023/07/25 02:52:03;;;;;;;13.98;5.40;;;;;;;23.93;64.85;98016.91;4480446;32;33229;-87
2023/07/25 02:54:30;;;;;;;10.30;5.05;;;;;;;23.83;65.39;98021.03;4482867;32;33998;-87
2023/07/25 02:56:58;;;;;;;11.32;4.90;;;;;;;23.52;65.67;98023.66;4483138;32;33441;-87
2023/07/25 02:59:25;;;;;;;10.63;4.85;;;;;;;23.36;66.18;98033.41;4483057;32;34696;-88
2023/07/25 03:01:53;;;;;;;9.85;4.43;;;;;;;23.35;66.49;98042.28;4482858;32;34145;-89
2023/07/25 03:04:21;;;;;;;12.15;4.62;;;;;;;23.59;65.66;98060.34;4483029;32;33531;-87
2023/07/25 03:06:48;;;;;;;9.18;4.43;;;;;;;23.37;66.67;98068.62;4468562;31;32399;-88
2023/07/25 03:09:16;;;;;;;10.90;4.10;;;;;;;23.59;66.06;98062.97;4482907;32;34724;-88
2023/07/25 03:11:43;;;;;;;10.02;4.47;;;;;;;23.83;65.16;98066.00;4481887;32;32938;-88
2023/07/25 03:14:11;;;;;;;11.63;4.80;;;;;;;23.84;64.87;98076.53;4481537;32;32548;-87
2023/07/25 03:16:38;;;;;;;9.95;4.55;;;;;;;23.93;64.84;98083.06;4481659;32;33061;-88
2023/07/25 03:19:06;;;;;;;12.60;5.10;;;;;;;23.77;65.49;98070.75;4481758;32;33549;-88
2023/07/25 03:21:33;;;;;;;9.18;4.35;;;;;;;23.66;65.92;98066.97;4481604;32;34621;-88
2023/07/25 03:24:01;;;;;;;9.23;4.43;;;;;;;23.35;67.18;98060.81;4482712;32;33779;-88
2023/07/25 03:26:29;;;;;;;8.68;4.22;;;;;;;23.81;65.77;98060.81;4482852;32;34376;-87
2023/07/25 03:28:56;;;;;;;10.82;4.37;;;;;;;24.04;64.72;98075.34;4481591;32;34662;-88
2023/07/25 03:31:24;;;;;;;10.05;4.25;;;;;;;23.92;64.64;98084.03;4482792;32;35210;-88
2023/07/25 03:33:52;;;;;;;9.80;4.65;;;;;;;23.74;65.40;98085.94;4481550;32;33073;-88
2023/07/25 03:36:19;;;;;;;8.40;3.60;;;;;;;23.80;65.32;98096.19;4483031;32;33208;-88
2023/07/25 03:38:47;;;;;;;8.15;3.72;;;;;;;23.50;65.11;98114.62;4481453;32;33524;-88
2023/07/25 03:41:14;;;;;;;10.95;3.90;;;;;;;22.91;67.14;98110.81;4482569;32;34325;-87
2023/07/25 03:43:42;;;;;;;8.63;3.65;;;;;;;23.06;66.91;98108.22;4482595;32;33761;-87
2023/07/25 03:46:10;;;;;;;10.70;4.05;;;;;;;23.34;65.83;98087.34;4482367;32;33455;-87
2023/07/25 03:48:37;;;;;;;11.05;4.10;;;;;;;23.52;65.28;98083.62;4481098;32;32340;-88
2023/07/25 03:51:05;;;;;;;10.50;3.92;;;;;;;23.45;65.48;98077.88;4481153;32;34575;-87
2023/07/25 03:53:32;;;;;;;10.35;4.10;;;;;;;23.67;65.11;98068.72;4482350;32;34514;-87
2023/07/25 03:56:00;;;;;;;7.93;3.37;;;;;;;23.23;66.14;98062.34;4482508;32;34083;-87
2023/07/25 03:58:28;;;;;;;7.90;3.25;;;;;;;23.34;65.37;98074.13;4482361;32;35054;-87
2023/07/25 04:00:55;;;;;;;9.93;3.87;;;;;;;23.34;65.07;98077.63;4480910;32;35015;-87
2023/07/25 04:03:23;;;;;;;10.20;3.75;;;;;;;23.05;66.42;98103.87;4481759;32;33019;-87
2023/07/25 04:05:54;;;;;;;9.07;4.53;;;;;;;23.33;65.08;98089.13;4481042;32;33230;-88
2023/07/25 04:08:21;;;;;;;8.73;3.90;;;;;;;23.31;65.63;98102.44;4482238;32;34027;-88
2023/07/25 04:10:49;;;;;;;10.55;4.35;;;;;;;23.46;65.43;98094.59;4481043;32;33600;-87
2023/07/25 04:13:16;;;;;;;9.25;4.18;;;;;;;23.08;66.64;98087.00;4480940;32;33856;-87
2023/07/25 04:15:44;;;;;;;9.30;4.35;;;;;;;23.13;66.65;98078.81;4468009;32;32309;-87
2023/07/25 04:18:12;;;;;;;11.02;4.07;;;;;;;23.27;66.74;98087.69;4482046;32;34109;-87
2023/07/25 04:20:39;;;;;;;9.20;4.05;;;;;;;23.56;65.95;98095.75;4482024;32;33640;-88
2023/07/25 04:23:07;;;;;;;11.63;4.03;;;;;;;23.71;65.53;98078.16;4482177;32;33787;-87
2023/07/25 04:25:34;;;;;;;12.10;4.05;;;;;;;23.72;65.29;98070.16;4482091;32;34351;-87
2023/07/25 04:28:02;;;;;;;10.32;4.60;;;;;;;23.64;65.56;98069.72;4481873;32;34802;-87
2023/07/25 04:30:30;;;;;;;8.57;4.07;;;;;;;23.85;64.87;98074.72;4480802;32;34564;-87
2023/07/25 04:32:58;;;;;;;10.38;4.70;;;;;;;23.73;65.47;98078.94;4480816;32;33024;-87
2023/07/25 04:35:25;;;;;;;11.32;4.25;;;;;;;23.88;64.83;98077.22;4480423;32;33346;-87
2023/07/25 04:37:53;;;;;;;8.32;3.97;;;;;;;23.63;65.00;98078.59;4482154;32;34806;-88
2023/07/25 04:40:20;;;;;;;10.23;3.47;;;;;;;23.85;64.69;98083.53;4481929;32;33724;-87
2023/07/25 04:42:49;;;;;;;9.93;3.92;;;;;;;24.15;63.54;98095.91;4480540;32;33473;-88
2023/07/25 04:45:17;;;;;;;10.40;3.60;;;;;;;24.02;63.91;98093.13;4481779;32;33336;-87
2023/07/25 04:47:45;;;;;;;12.70;3.75;;;;;;;23.99;64.01;98095.97;4480159;32;33961;-87
2023/07/25 04:50:12;;;;;;;11.20;4.40;;;;;;;24.19;63.88;98098.28;4480321;32;33935;-87
2023/07/25 04:52:40;;;;;;;9.02;3.47;;;;;;;24.53;63.33;98080.37;4481429;32;33869;-88
2023/07/25 04:55:08;;;;;;;10.68;4.10;;;;;;;24.90;62.59;98071.00;4481935;32;34392;-87
2023/07/25 04:57:35;;;;;;;8.10;3.97;;;;;;;25.05;62.14;98060.38;4481438;32;34053;-87
2023/07/25 05:00:04;;;;;;;9.57;3.25;;;;;;;25.07;62.35;98059.28;4481517;32;34108;-87
2023/07/25 05:02:32;;;;;;;9.80;4.03;;;;;;;25.53;61.76;98056.34;4480149;32;33429;-87
2023/07/25 05:05:00;;;;;;;7.35;3.67;;;;;;;25.97;60.47;98055.22;4481222;32;34422;-88
2023/07/25 05:07:27;;;;;;;8.15;3.42;;;;;;;26.08;59.79;98036.75;4480121;32;34016;-87
2023/07/25 05:09:55;;;;;;;7.82;3.58;;;;;;;26.42;59.56;98015.81;4480232;32;33840;-87
2023/07/25 05:12:22;;;;;;;8.82;3.35;;;;;;;26.67;59.24;98014.97;4481263;32;33774;-87
2023/07/25 05:14:50;;;;;;;9.00;2.97;;;;;;;27.01;58.47;98026.69;4481822;32;33133;-87
2023/07/25 05:17:18;;;;;;;10.65;2.90;;;;;;;26.91;57.53;98033.63;4483672;32;33732;-87
2023/07/25 05:19:45;;;;;;;12.43;4.22;;;;;;;26.97;58.00;98024.34;4483765;32;33649;-88
2023/07/25 05:22:16;;;;;;;12.43;4.07;;;;;;;26.98;55.77;98026.91;4483893;32;33868;-88
2023/07/25 05:24:44;;;;;;;11.50;3.80;;;;;;;26.79;57.19;98018.56;4482472;32;33356;-90
2023/07/25 05:27:12;;;;;;;10.43;4.57;;;;;;;26.53;56.18;98017.75;4483639;32;33852;-87
2023/07/25 05:29:39;;;;;;;12.95;4.90;;;;;;;26.04;57.43;98019.31;4483694;32;34001;-87
2023/07/25 05:32:07;;;;;;;9.15;3.97;;;;;;;26.15;56.81;98021.25;4483588;32;34066;-88
2023/07/25 05:34:35;;;;;;;11.05;4.43;;;;;;;26.77;56.07;98023.12;4483627;32;34146;-87
2023/07/25 05:37:02;;;;;;;13.60;4.68;;;;;;;26.84;56.14;98013.75;4484009;32;33503;-87
2023/07/25 05:39:30;;;;;;;11.20;4.35;;;;;;;27.27;55.34;98011.50;4483790;32;35174;-87
2023/07/25 05:41:58;;;;;;;9.23;4.68;;;;;;;26.04;57.60;98021.13;4483477;32;34895;-87
2023/07/25 05:44:25;;;;;;;9.93;4.55;;;;;;;25.91;58.28;98021.09;4483628;32;33748;-87
2023/07/25 05:46:55;;;;;;;11.20;4.53;;;;;;;26.46;57.67;98027.13;4483519;32;34442;-88
2023/07/25 05:49:22;;;;;;;10.50;4.53;;;;;;;26.59;57.50;98035.91;4482308;32;33843;-88
2023/07/25 05:51:50;;;;;;;10.27;4.35;;;;;;;26.01;58.58;98042.59;4483286;32;34600;-87
2023/07/25 05:54:18;;;;;;;11.05;4.35;;;;;;;26.77;57.50;98063.88;4483338;32;33753;-87
2023/07/25 05:56:45;;;;;;;13.88;4.95;;;;;;;26.69;56.19;98067.06;4483713;32;33816;-86
2023/07/25 05:59:12;;;;;;;11.20;4.43;;;;;;;26.54;57.34;98065.47;4482010;32;34031;-86
2023/07/25 06:01:40;;;;;;;11.00;4.22;;;;;;;26.69;56.00;98068.88;4483277;32;34530;-86
2023/07/25 06:04:08;;;;;;;9.57;4.25;;;;;;;26.64;57.35;98071.03;4483386;32;34194;-86
2023/07/25 06:06:35;;;;;;;13.02;4.15;;;;;;;26.59;56.49;98068.66;4482065;32;34578;-87
2023/07/25 06:09:03;;;;;;;10.65;4.22;;;;;;;26.56;56.31;98055.59;4482030;32;34687;-87
2023/07/25 06:11:31;;;;;;;10.63;4.25;;;;;;;26.61;57.28;98053.47;4469478;32;32267;-87
2023/07/25 06:13:58;;;;;;;8.88;3.90;;;;;;;26.78;56.38;98030.12;4483472;32;33606;-87
2023/07/25 06:16:26;;;;;;;10.05;4.00;;;;;;;26.86;54.75;98038.44;4483225;32;33885;-87
2023/07/25 06:18:54;;;;;;;11.27;3.28;;;;;;;27.45;54.49;98033.25;4483404;32;34226;-87
2023/07/25 06:21:21;;;;;;;8.77;3.28;;;;;;;27.28;57.65;98034.50;4483427;32;33600;-87
2023/07/25 06:23:49;;;;;;;9.82;3.70;;;;;;;27.44;56.90;98028.91;4483148;32;34347;-87
2023/07/25 06:26:16;;;;;;;9.88;4.07;;;;;;;27.42;55.83;98023.66;4483179;32;34078;-87
2023/07/25 06:28:44;;;;;;;11.20;3.35;;;;;;;27.45;54.46;98024.41;4483170;32;34902;-87
2023/07/25 06:31:12;;;;;;;6.93;3.47;;;;;;;27.31;55.74;98020.09;4483105;32;33770;-87
2023/07/25 06:33:39;;;;;;;9.20;3.45;;;;;;;27.56;52.92;98020.00;4483349;32;33413;-87
2023/07/25 06:36:07;;;;;;;8.60;3.55;;;;;;;28.09;54.82;98012.44;4483167;32;33634;-87
2023/07/25 06:38:34;;;;;;;8.23;3.05;;;;;;;28.14;54.31;98012.06;4483040;32;33816;-87
2023/07/25 06:41:02;;;;;;;7.97;3.37;;;;;;;28.39;52.69;98000.38;4483427;32;33948;-87
2023/07/25 06:43:30;;;;;;;8.20;3.22;;;;;;;28.61;49.01;97995.03;4482936;32;33114;-87
2023/07/25 06:45:57;;;;;;;10.60;3.22;;;;;;;28.62;47.34;97996.75;4481679;32;34650;-87
2023/07/25 06:48:25;;;;;;;8.30;3.33;;;;;;;28.43;45.95;97985.84;4483135;32;34954;-87
2023/07/25 06:50:52;;;;;;;8.88;3.22;;;;;;;28.95;46.86;97971.00;4482846;32;33713;-87
2023/07/25 06:53:20;;;;;;;10.02;3.62;;;;;;;29.42;48.91;97974.25;4482929;32;34233;-87
2023/07/25 06:55:47;;;;;;;9.63;3.35;;;;;;;29.62;48.61;97966.41;4483122;32;33787;-87
2023/07/25 06:58:15;;;;;;;6.95;3.20;;;;;;;29.46;46.03;97961.50;4483405;32;34474;-88
2023/07/25 07:00:42;;;;;;;8.90;3.42;;;;;;;29.37;43.34;97957.78;4483196;32;33697;-87
2023/07/25 07:03:10;;;;;;;8.85;3.47;;;;;;;29.33;46.34;97956.34;4481990;32;33147;-87
2023/07/25 07:05:38;;;;;;;9.05;3.95;;;;;;;29.42;46.25;97944.88;4483171;32;34688;-87
2023/07/25 07:08:05;;;;;;;7.15;3.12;;;;;;;29.52;43.75;97934.28;4481645;32;33444;-87
2023/07/25 07:10:33;;;;;;;9.30;3.05;;;;;;;29.62;47.87;97939.72;4483108;32;33392;-88
2023/07/25 07:13:01;;;;;;;7.15;3.00;;;;;;;29.40;47.58;97922.81;4482824;32;33273;-88
2023/07/25 07:15:28;;;;;;;8.02;3.35;;;;;;;29.57;44.69;97919.59;4481564;32;33696;-87
2023/07/25 07:17:56;;;;;;;8.57;3.35;;;;;;;29.54;47.77;97930.50;4483051;32;34932;-88
2023/07/25 07:20:23;;;;;;;7.22;3.47;;;;;;;29.40;45.26;97917.47;4483085;32;33654;-88
2023/07/25 07:22:51;;;;;;;10.75;3.87;;;;;;;29.23;42.75;97915.38;4481398;32;33018;-88
2023/07/25 07:25:19;;;;;;;8.65;3.42;;;;;;;29.43;41.98;97908.34;4483474;32;33818;-88
2023/07/25 07:27:47;;;;;;;8.00;3.03;;;;;;;28.89;43.76;97899.44;4482782;32;33978;-89
2023/07/25 07:30:15;;;;;;;6.93;3.12;;;;;;;29.03;43.94;97899.19;4482761;32;33050;-88
2023/07/25 07:32:43;;;;;;;7.22;3.22;;;;;;;29.11;43.25;97901.22;4483424;32;34195;-89
2023/07/25 07:35:10;;;;;;;12.65;3.30;;;;;;;28.68;43.74;97893.19;4482985;32;33647;-88
2023/07/25 07:37:38;;;;;;;8.57;3.25;;;;;;;29.04;45.65;97894.69;4480743;32;33783;-88
2023/07/25 07:40:06;;;;;;;9.32;3.55;;;;;;;29.02;43.99;97886.84;4482824;32;33849;-88
2023/07/25 07:42:33;;;;;;;8.27;3.42;;;;;;;29.25;45.13;97900.09;4483452;32;34267;-87
2023/07/25 07:45:01;;;;;;;9.98;3.67;;;;;;;28.23;47.98;97915.44;4481694;32;33974;-88
2023/07/25 07:47:28;;;;;;;8.57;3.47;;;;;;;28.45;48.24;97917.25;4483306;32;35036;-89
2023/07/25 07:49:59;;;;;;;9.10;3.65;;;;;;;28.47;49.59;97911.78;4482579;32;34122;-88
2023/07/25 07:52:40;;;;;;;9.90;3.80;;;;;;;28.68;50.45;97914.53;4482779;32;33438;-88
2023/07/25 07:55:11;;;;;;;8.77;3.33;;;;;;;28.19;48.94;97907.81;4482595;32;33763;-89
2023/07/25 07:57:43;;;;;;;7.50;3.00;;;;;;;28.21;48.28;97911.19;4481221;32;35195;-89
2023/07/25 08:00:13;;;;;;;8.50;3.45;;;;;;;27.90;49.44;97916.25;4481651;32;33956;-90
2023/07/25 08:02:42;;;;;;;11.55;3.97;;;;;;;28.00;49.19;97916.41;4482695;32;33436;-88
2023/07/25 08:05:11;;;;;;;8.18;3.33;;;;;;;27.88;50.53;97924.38;4482642;32;34512;-89
2023/07/25 08:07:40;;;;;;;10.68;3.42;;;;;;;27.89;49.38;97919.91;4480971;32;35087;-89
2023/07/25 08:10:07;;;;;;;9.60;4.25;;;;;;;27.84;50.70;97912.25;4480942;32;33919;-89
2023/07/25 08:12:35;;;;;;;9.20;3.45;;;;;;;27.78;49.63;97915.41;4482364;32;33517;-89
2023/07/25 08:15:03;;;;;;;7.47;3.15;;;;;;;27.33;50.68;97917.06;4481258;32;33814;-88
2023/07/25 08:17:31;;;;;;;10.35;3.33;;;;;;;27.50;50.64;97915.78;4480930;32;33365;-90
2023/07/25 08:19:59;;;;;;;8.45;3.33;;;;;;;27.13;49.56;97897.28;4481021;32;33795;-89
2023/07/25 08:22:26;;;;;;;8.98;3.45;;;;;;;26.61;51.82;97893.97;4482381;32;33595;-89
2023/07/25 08:24:54;;;;;;;10.10;3.70;;;;;;;27.22;52.00;97895.75;4467830;32;33663;-90
2023/07/25 08:27:22;;;;;;;8.85;3.72;;;;;;;26.86;50.70;97889.53;4468158;32;33551;-89
2023/07/25 08:29:49;;;;;;;10.57;3.67;;;;;;;26.74;51.83;97877.09;4482574;32;34201;-90
2023/07/25 08:32:17;;;;;;;13.27;4.00;;;;;;;26.77;51.67;97879.56;4482257;32;33134;-89
2023/07/25 08:34:44;;;;;;;8.32;3.20;;;;;;;26.44;52.16;97870.38;4483007;32;34637;-89
2023/07/25 08:37:12;;;;;;;10.63;3.47;;;;;;;26.66;52.52;97883.84;4482201;32;34100;-89
2023/07/25 08:39:39;;;;;;;8.23;3.20;;;;;;;26.45;54.55;97872.09;4481890;32;34552;-88
2023/07/25 08:42:09;;;;;;;9.63;3.35;;;;;;;26.74;55.13;97887.75;4481953;32;33294;-88
2023/07/25 08:44:37;;;;;;;9.07;3.25;;;;;;;26.68;55.94;97891.72;4480741;32;33785;-88
2023/07/25 08:47:09;;;;;;;9.57;3.65;;;;;;;26.80;56.60;97893.47;4480323;32;34034;-88
2023/07/25 08:49:40;;;;;;;9.40;3.28;;;;;;;26.86;57.10;97884.22;4480988;32;33935;-87
2023/07/25 08:52:08;;;;;;;8.88;4.00;;;;;;;26.88;57.24;97887.59;4482770;32;33329;-88
2023/07/25 08:54:37;;;;;;;10.20;3.60;;;;;;;26.78;57.98;97905.16;4484342;32;33917;-90
2023/07/25 08:57:05;;;;;;;9.02;4.15;;;;;;;26.71;56.82;97914.56;4482705;32;34007;-87
2023/07/25 08:59:33;;;;;;;9.15;3.67;;;;;;;26.57;57.76;97924.41;4483999;32;33700;-88
2023/07/25 09:02:01;;;;;;;8.32;3.75;;;;;;;26.80;58.26;97922.72;4482710;32;33243;-88
2023/07/25 09:04:29;;;;;;;13.00;3.83;;;;;;;26.97;58.49;97948.06;4482702;32;33987;-87
2023/07/25 09:06:59;;;;;;;9.93;3.65;;;;;;;26.61;59.70;98000.31;4482470;32;35004;-88
2023/07/25 09:09:27;;;;;;;9.70;3.65;;;;;;;26.27;60.47;98078.00;4483364;32;34096;-89
2023/07/25 09:11:55;;;;;;;13.68;4.32;;;;;;;25.89;61.30;98190.31;4482572;32;33401;-89
2023/07/25 09:14:22;;;;;;;11.68;4.25;;;;;;;25.22;64.34;98238.72;4483814;32;35161;-88
2023/07/25 09:16:50;;;;;;;9.02;4.35;;;;;;;24.90;64.60;98258.38;4482584;32;33156;-88
2023/07/25 09:19:18;;;;;;;9.88;4.60;;;;;;;24.62;66.28;98236.16;4482641;32;34184;-89
2023/07/25 09:21:47;;;;;;;12.15;4.20;;;;;;;24.58;67.28;98210.78;4469472;32;32433;-88
2023/07/25 09:24:15;;;;;;;12.48;4.65;;;;;;;24.33;68.37;98186.66;4482367;32;34063;-89
2023/07/25 09:26:51;;;;;;;11.45;4.18;;;;;;;24.02;69.22;98188.44;4469421;32;32682;-89
2023/07/25 09:29:20;;;;;;;11.43;5.28;;;;;;;23.84;70.32;98179.75;4483592;32;33518;-88
2023/07/25 09:31:48;;;;;;;11.40;4.60;;;;;;;24.25;70.00;98187.97;4469805;32;32087;-88
2023/07/25 09:34:17;;;;;;;15.15;5.93;;;;;;;24.13;69.86;98171.91;4483970;32;33826;-88
2023/07/25 09:36:49;;;;;;;11.65;5.28;;;;;;;23.92;71.04;98185.47;4482378;32;33701;-87
2023/07/25 09:39:17;;;;;;;13.85;5.47;;;;;;;23.41;70.83;98160.09;4482571;32;34537;-87
2023/07/25 09:41:45;;;;;;;12.15;5.35;;;;;;;23.26;71.96;98165.31;4482250;32;33331;-87
2023/07/25 09:44:13;;;;;;;17.23;5.78;;;;;;;23.48;71.62;98174.69;4482401;32;33663;-88
2023/07/25 09:46:50;;;;;;;15.40;6.32;;;;;;;23.21;71.97;98163.84;4483901;32;33836;-88
2023/07/25 09:49:21;;;;;;;13.90;6.35;;;;;;;23.29;70.52;98130.75;4482250;32;33469;-87
2023/07/25 09:51:59;;;;;;;13.18;5.90;;;;;;;22.58;74.12;98098.50;4483223;32;34106;-87
2023/07/25 09:54:27;;;;;;;13.25;6.30;;;;;;;22.96;72.98;98087.69;4483459;32;34802;-87
2023/07/25 09:56:55;;;;;;;12.70;6.35;;;;;;;22.87;72.85;98059.06;4483639;32;33885;-88
2023/07/25 09:59:22;;;;;;;13.88;7.72;;;;;;;22.93;73.40;98035.00;4482398;32;33936;-87
2023/07/25 10:01:50;;;;;;;12.88;7.18;;;;;;;22.65;73.98;98047.00;4483029;32;33199;-87
2023/07/25 10:04:20;;;;;;;12.00;6.12;;;;;;;22.97;74.20;98052.38;4483487;32;33870;-87
2023/07/25 10:06:48;;;;;;;10.75;6.35;;;;;;;23.23;73.39;98048.28;4481910;31;34217;-88
2023/07/25 10:09:16;;;;;;;11.38;5.78;;;;;;;23.27;72.85;98055.94;4482105;32;33629;-88
2023/07/25 10:11:44;;;;;;;10.15;5.37;;;;;;;23.43;71.27;98070.94;4483535;32;33144;-87
2023/07/25 10:14:11;;;;;;;12.85;5.72;;;;;;;23.91;69.99;98093.75;4482190;32;33703;-88
2023/07/25 10:16:40;;;;;;;11.40;5.82;;;;;;;23.66;70.09;98107.56;4483308;32;34063;-88
2023/07/25 10:19:09;;;;;;;10.95;6.00;;;;;;;23.27;73.07;98132.63;4483294;32;33644;-87
2023/07/25 10:21:48;;;;;;;11.77;5.60;;;;;;;23.17;72.62;98152.59;4483482;32;33708;-88
2023/07/25 10:24:17;;;;;;;9.82;5.40;;;;;;;23.48;70.30;98154.38;4481963;32;34772;-88
2023/07/25 10:27:00;;;;;;;9.82;5.53;;;;;;;22.85;74.26;98142.88;4482206;32;33800;-84
2023/07/25 10:29:43;;;;;;;11.82;5.90;;;;;;;22.88;73.27;98126.84;4483328;32;33934;-88
2023/07/25 10:32:15;;;;;;;12.48;5.65;;;;;;;22.75;75.76;98105.50;4483285;32;33448;-87
2023/07/25 10:34:47;;;;;;;11.43;5.45;;;;;;;23.20;74.13;98086.31;4468963;32;34773;-87
2023/07/25 10:37:29;;;;;;;11.30;5.60;;;;;;;23.33;74.96;98067.09;4483559;32;34266;-85
2023/07/25 10:40:11;;;;;;;10.82;6.03;;;;;;;23.27;72.88;98061.25;4483285;32;33974;-87
2023/07/25 10:42:45;;;;;;;12.85;5.72;;;;;;;23.16;73.04;98058.34;4483337;32;33779;-87
2023/07/25 10:45:32;;;;;;;10.75;5.37;;;;;;;23.49;70.69;98034.44;4483285;32;34708;-88
2023/07/25 10:48:00;;;;;;;10.52;5.15;;;;;;;23.34;71.54;98014.16;4482946;32;33746;-87
2023/07/25 10:50:51;;;;;;;11.32;6.25;;;;;;;23.40;70.87;98002.34;4468825;32;33441;-87
2023/07/25 10:53:24;;;;;;;10.32;5.28;;;;;;;23.46;72.51;98013.44;4482995;32;33167;-87
2023/07/25 10:56:04;;;;;;;9.63;5.25;;;;;;;24.01;68.79;98002.25;4481907;32;33895;-88
2023/07/25 10:59:01;;;;;;;9.63;5.43;;;;;;;24.46;67.78;98024.25;4481555;32;34148;-87
2023/07/25 11:01:43;;;;;;;8.52;5.28;;;;;;;24.48;66.89;98024.16;4483288;32;33932;-87
2023/07/25 11:04:28;;;;;;;10.32;5.72;;;;;;;23.72;69.64;98029.63;4481824;32;32761;-87
2023/07/25 11:06:57;;;;;;;9.57;5.00;;;;;;;24.19;69.35;98040.00;4481584;32;33883;-88
2023/07/25 11:09:26;;;;;;;9.02;5.37;;;;;;;24.46;67.08;98026.91;4483006;32;34961;-88
2023/07/25 11:11:54;;;;;;;11.68;4.93;;;;;;;23.86;67.42;97994.38;4481539;32;32267;-87
2023/07/25 11:14:22;;;;;;;9.65;4.70;;;;;;;23.75;68.29;97972.06;4482317;32;32942;-87
2023/07/25 11:16:51;;;;;;;9.98;5.10;;;;;;;23.92;67.93;97951.66;4483059;32;34033;-87
2023/07/25 11:19:24;;;;;;;8.70;5.22;;;;;;;24.01;69.37;97945.81;4481584;32;34097;-88
2023/07/25 11:21:52;;;;;;;8.57;4.47;;;;;;;24.40;68.73;97929.28;4481572;32;33685;-88
2023/07/25 11:24:21;;;;;;;8.48;4.30;;;;;;;24.34;66.89;97904.94;4468846;32;34184;-87
2023/07/25 11:26:49;;;;;;;9.57;4.70;;;;;;;24.54;65.64;97917.78;4481755;32;34111;-88
2023/07/25 11:29:17;;;;;;;8.95;4.47;;;;;;;24.50;68.06;97922.44;4481359;32;34177;-90
2023/07/25 11:31:47;;;;;;;8.90;4.55;;;;;;;24.41;64.93;97911.59;4468750;32;33518;-88
2023/07/25 11:34:19;;;;;;;9.80;4.55;;;;;;;24.51;65.27;97902.97;4481352;32;34081;-87
2023/07/25 11:36:47;;;;;;;9.23;4.93;;;;;;;24.80;65.50;97904.66;4481604;32;34104;-87